createdAt,value
2018-07-23T00:01:30.227Z,99.90
2018-07-23T00:03:58.723Z,99.90
2018-07-23T00:06:27.219Z,99.90
2018-07-23T00:08:55.648Z,99.90
2018-07-23T00:11:25.554Z,99.90
2018-07-23T00:13:54.066Z,99.90
2018-07-23T00:16:22.570Z,99.90
2018-07-23T00:18:51.022Z,99.90
2018-07-23T00:21:19.761Z,99.90
2018-07-23T00:23:48.400Z,99.90
2018-07-23T00:26:16.808Z,99.90
2018-07-23T00:28:45.426Z,99.90
2018-07-23T00:31:13.999Z,99.90
2018-07-23T00:33:42.502Z,99.90
2018-07-23T00:36:11.008Z,99.90
2018-07-23T00:38:39.902Z,99.90
2018-07-23T00:41:08.407Z,99.90
2018-07-23T00:43:36.957Z,99.90
2018-07-23T00:46:05.478Z,99.90
2018-07-23T00:48:33.899Z,99.90
2018-07-23T00:51:02.345Z,99.90
2018-07-23T00:53:30.798Z,99.90
2018-07-23T00:55:59.251Z,99.90
2018-07-23T00:58:27.686Z,99.90
2018-07-23T01:00:56.257Z,99.90
2018-07-23T01:03:24.804Z,99.90
2018-07-23T01:05:53.305Z,99.90
2018-07-23T01:08:21.991Z,99.90
2018-07-23T01:10:50.470Z,99.90
2018-07-23T01:13:18.869Z,99.90
2018-07-23T01:15:47.275Z,99.90
2018-07-23T01:18:15.730Z,99.90
2018-07-23T01:20:44.163Z,99.90
2018-07-23T01:23:12.652Z,99.90
2018-07-23T01:25:41.189Z,99.90
2018-07-23T01:28:09.603Z,99.90
2018-07-23T01:30:38.087Z,99.90
2018-07-23T01:33:06.669Z,99.90
2018-07-23T01:35:35.211Z,99.90
2018-07-23T01:38:03.752Z,99.90
2018-07-23T01:40:35.158Z,99.90
2018-07-23T01:43:03.754Z,99.90
2018-07-23T01:45:32.202Z,99.90
2018-07-23T01:48:00.660Z,99.90
2018-07-23T01:50:29.312Z,99.90
2018-07-23T01:52:58.043Z,99.90
2018-07-23T01:55:26.580Z,99.90
2018-07-23T01:57:55.133Z,99.90
2018-07-23T02:00:24.948Z,99.90
2018-07-23T02:02:53.367Z,99.90
2018-07-23T02:05:22.043Z,99.90
2018-07-23T02:07:50.631Z,99.90
2018-07-23T02:10:19.204Z,99.90
2018-07-23T02:12:48.084Z,99.90
2018-07-23T02:15:16.532Z,99.90
2018-07-23T02:17:45.024Z,99.90
2018-07-23T02:20:13.731Z,99.90
2018-07-23T02:22:42.190Z,99.90
2018-07-23T02:25:10.786Z,99.90
2018-07-23T02:27:39.322Z,99.90
2018-07-23T02:30:07.863Z,99.90
2018-07-23T02:32:36.428Z,99.90
2018-07-23T02:35:04.923Z,99.90
2018-07-23T02:37:33.417Z,99.90
2018-07-23T02:40:01.965Z,99.90
2018-07-23T02:42:30.506Z,99.90
2018-07-23T02:44:59.035Z,99.90
2018-07-23T02:47:29.259Z,99.90
2018-07-23T02:49:57.823Z,99.90
2018-07-23T02:52:26.441Z,99.90
2018-07-23T02:54:54.855Z,99.90
2018-07-23T02:57:23.427Z,99.90
2018-07-23T02:59:51.893Z,99.90
2018-07-23T03:02:20.441Z,99.90
2018-07-23T03:04:48.864Z,99.90
2018-07-23T03:07:17.381Z,99.90
2018-07-23T03:09:45.931Z,99.90
2018-07-23T03:12:20.830Z,99.90
2018-07-23T03:14:49.270Z,99.90
2018-07-23T03:17:18.987Z,99.90
2018-07-23T03:19:47.471Z,99.90
2018-07-23T03:22:15.910Z,99.90
2018-07-23T03:24:44.435Z,99.90
2018-07-23T03:27:12.957Z,99.90
2018-07-23T03:29:41.398Z,99.90
2018-07-23T03:32:10.011Z,99.90
2018-07-23T03:34:38.419Z,99.90
2018-07-23T03:37:06.864Z,99.90
2018-07-23T03:39:35.370Z,99.90
2018-07-23T03:42:03.878Z,99.90
2018-07-23T03:44:32.355Z,99.90
2018-07-23T03:47:00.842Z,99.90
2018-07-23T03:49:29.426Z,99.90
2018-07-23T03:51:57.888Z,99.90
2018-07-23T03:54:26.387Z,99.90
2018-07-23T03:56:54.964Z,99.90
2018-07-23T03:59:23.574Z,99.90
2018-07-23T04:01:52.044Z,99.90
2018-07-23T04:04:20.647Z,99.90
2018-07-23T04:06:49.598Z,99.90
2018-07-23T04:09:18.159Z,99.90
2018-07-23T04:11:46.664Z,99.90
2018-07-23T04:14:15.567Z,99.90
2018-07-23T04:16:43.988Z,99.90
2018-07-23T04:19:12.526Z,99.90
2018-07-23T04:21:40.937Z,99.90
2018-07-23T04:24:09.344Z,99.90
2018-07-23T04:26:37.860Z,99.90
2018-07-23T04:29:06.357Z,99.90
2018-07-23T04:31:35.140Z,99.90
2018-07-23T04:34:03.801Z,99.90
2018-07-23T04:36:32.567Z,99.90
2018-07-23T04:39:01.929Z,99.90
2018-07-23T04:41:30.904Z,99.90
2018-07-23T04:43:59.410Z,99.90
2018-07-23T04:46:28.610Z,99.90
2018-07-23T04:48:57.131Z,99.90
2018-07-23T04:51:25.714Z,99.90
2018-07-23T04:53:54.630Z,99.90
2018-07-23T04:56:25.203Z,99.90
2018-07-23T04:58:53.618Z,99.90
2018-07-23T05:01:22.242Z,99.90
2018-07-23T05:03:50.768Z,99.90
2018-07-23T05:06:19.187Z,99.90
2018-07-23T05:08:47.696Z,99.90
2018-07-23T05:11:16.186Z,99.90
2018-07-23T05:13:44.712Z,99.90
2018-07-23T05:16:13.160Z,99.90
2018-07-23T05:18:41.879Z,99.90
2018-07-23T05:21:10.445Z,99.90
2018-07-23T05:23:39.160Z,99.90
2018-07-23T05:26:08.272Z,99.90
2018-07-23T05:28:36.832Z,99.90
2018-07-23T05:31:05.491Z,99.90
2018-07-23T05:33:34.101Z,99.90
2018-07-23T05:36:02.603Z,99.90
2018-07-23T05:38:31.038Z,99.90
2018-07-23T05:40:59.508Z,99.90
2018-07-23T05:43:28.064Z,99.90
2018-07-23T05:45:56.650Z,99.90
2018-07-23T05:48:25.324Z,99.90
2018-07-23T05:50:53.772Z,99.90
2018-07-23T05:53:22.422Z,99.90
2018-07-23T05:55:50.993Z,99.90
2018-07-23T05:58:19.490Z,99.90
2018-07-23T06:00:47.917Z,99.90
2018-07-23T06:03:16.407Z,99.90
2018-07-23T06:05:44.824Z,99.90
2018-07-23T06:08:13.232Z,99.90
2018-07-23T06:10:41.729Z,99.90
2018-07-23T06:13:10.284Z,99.90
2018-07-23T06:15:38.728Z,99.90
2018-07-23T06:18:07.659Z,99.90
2018-07-23T06:20:36.280Z,99.90
2018-07-23T06:23:04.787Z,99.90
2018-07-23T06:25:33.306Z,99.90
2018-07-23T06:28:01.777Z,99.90
2018-07-23T06:30:30.428Z,99.90
2018-07-23T06:32:58.892Z,99.90
2018-07-23T06:35:27.371Z,99.90
2018-07-23T06:37:56.023Z,99.90
2018-07-23T06:40:24.562Z,99.90
2018-07-23T06:42:53.359Z,99.90
2018-07-23T06:45:21.942Z,99.90
2018-07-23T06:47:50.352Z,99.90
2018-07-23T06:50:19.604Z,99.90
2018-07-23T06:52:48.342Z,99.90
2018-07-23T06:55:17.460Z,99.90
2018-07-23T06:57:46.015Z,99.90
2018-07-23T07:00:14.504Z,99.90
2018-07-23T07:02:43.027Z,99.90
2018-07-23T07:05:11.465Z,99.90
2018-07-23T07:07:40.203Z,99.90
2018-07-23T07:10:08.682Z,99.90
2018-07-23T07:12:37.151Z,99.90
2018-07-23T07:15:05.936Z,99.90
2018-07-23T07:17:34.371Z,99.90
2018-07-23T07:20:02.922Z,99.90
2018-07-23T07:22:31.472Z,99.90
2018-07-23T07:24:59.941Z,99.90
2018-07-23T07:27:29.207Z,99.90
2018-07-23T07:29:57.601Z,99.90
2018-07-23T07:32:26.060Z,99.90
2018-07-23T07:37:22.927Z,99.90
2018-07-23T07:39:51.491Z,99.90
2018-07-23T07:42:22.106Z,99.90
2018-07-23T07:44:50.635Z,99.90
2018-07-23T07:47:19.090Z,99.90
2018-07-23T07:49:47.520Z,99.90
2018-07-23T07:52:16.314Z,99.90
2018-07-23T07:54:45.896Z,99.90
2018-07-23T07:57:14.555Z,99.90
2018-07-23T07:59:43.035Z,99.90
2018-07-23T08:02:11.463Z,99.90
2018-07-23T08:04:39.972Z,99.90
2018-07-23T08:07:08.534Z,99.90
2018-07-23T08:09:36.992Z,99.90
2018-07-23T08:12:05.419Z,99.90
2018-07-23T08:14:33.852Z,99.90
2018-07-23T08:17:03.106Z,99.90
2018-07-23T08:19:31.710Z,99.90
2018-07-23T08:22:00.350Z,99.90
2018-07-23T08:24:28.851Z,99.90
2018-07-23T08:29:25.558Z,99.90
2018-07-23T08:31:54.110Z,99.90
2018-07-23T08:34:22.688Z,99.90
2018-07-23T08:36:51.261Z,99.90
2018-07-23T08:39:19.812Z,99.90
2018-07-23T08:41:48.317Z,99.90
2018-07-23T08:44:17.059Z,99.90
2018-07-23T08:46:45.590Z,99.90
2018-07-23T08:49:14.340Z,99.90
2018-07-23T08:51:42.807Z,99.90
2018-07-23T08:54:11.360Z,99.90
2018-07-23T08:56:39.866Z,99.90
2018-07-23T08:59:08.730Z,99.90
2018-07-23T09:01:37.360Z,96.40
2018-07-23T09:04:06.524Z,96.20
2018-07-23T09:06:35.131Z,96.90
2018-07-23T09:09:04.528Z,94.80
2018-07-23T09:11:33.105Z,94.90
2018-07-23T09:14:01.549Z,95.20
2018-07-23T09:16:30.067Z,94.40
2018-07-23T09:18:58.535Z,95.40
2018-07-23T09:21:27.060Z,95.30
2018-07-23T09:23:55.741Z,95.00
2018-07-23T09:26:24.261Z,94.70
2018-07-23T09:28:53.990Z,94.50
2018-07-23T09:31:22.777Z,92.90
2018-07-23T09:33:51.242Z,92.30
2018-07-23T09:36:19.742Z,92.30
2018-07-23T09:38:48.579Z,92.20
2018-07-23T09:41:17.048Z,93.20
2018-07-23T09:43:45.602Z,93.60
2018-07-23T09:46:14.139Z,93.30
2018-07-23T09:48:42.610Z,93.20
2018-07-23T09:51:11.098Z,91.50
2018-07-23T09:53:39.575Z,93.00
2018-07-23T09:56:08.583Z,92.60
2018-07-23T09:58:37.126Z,91.40
2018-07-23T10:01:12.015Z,92.80
2018-07-23T10:03:41.383Z,92.30
2018-07-23T10:08:37.879Z,91.10
2018-07-23T10:13:34.752Z,93.20
2018-07-23T10:18:31.392Z,92.00
2018-07-23T10:20:59.944Z,91.50
2018-07-23T10:23:28.825Z,92.40
2018-07-23T10:25:57.412Z,90.20
2018-07-23T10:28:26.122Z,87.90
2018-07-23T10:30:54.579Z,89.00
2018-07-23T10:33:23.021Z,90.80
2018-07-23T10:35:51.478Z,91.20
2018-07-23T10:38:19.942Z,92.40
2018-07-23T10:40:48.401Z,92.50
2018-07-23T10:43:16.949Z,90.70
2018-07-23T10:45:45.510Z,91.40
2018-07-23T10:48:14.036Z,90.90
2018-07-23T10:50:42.528Z,91.30
2018-07-23T10:53:11.073Z,92.00
2018-07-23T10:55:39.607Z,92.10
2018-07-23T11:00:36.334Z,90.50
2018-07-23T11:03:04.800Z,89.40
2018-07-23T11:05:33.629Z,88.00
2018-07-23T11:10:30.486Z,84.00
2018-07-23T11:12:58.964Z,87.20
2018-07-23T11:15:27.415Z,86.30
2018-07-23T11:17:55.945Z,85.20
2018-07-23T11:20:24.396Z,80.50
2018-07-23T11:22:52.862Z,80.80
2018-07-23T11:25:39.087Z,82.10
2018-07-23T11:27:49.975Z,77.30
2018-07-23T11:30:18.419Z,80.10
2018-07-23T11:32:46.889Z,78.30
2018-07-23T11:35:15.492Z,80.60
2018-07-23T11:40:12.391Z,78.50
2018-07-23T11:42:40.971Z,79.50
2018-07-23T11:45:09.575Z,78.80
2018-07-23T11:47:38.041Z,78.70
2018-07-23T11:50:06.752Z,84.00
2018-07-23T11:52:35.430Z,83.10
2018-07-23T11:55:03.925Z,82.90
2018-07-23T11:57:32.371Z,80.80
2018-07-23T12:00:01.073Z,79.60
2018-07-23T12:02:29.512Z,84.50
2018-07-23T12:04:58.167Z,85.80
2018-07-23T12:09:54.870Z,89.20
2018-07-23T12:12:23.394Z,84.80
2018-07-23T12:14:51.827Z,84.10
2018-07-23T12:17:21.740Z,79.40
2018-07-23T12:19:50.358Z,75.50
2018-07-23T12:22:18.899Z,72.00
2018-07-23T12:24:47.378Z,71.20
2018-07-23T12:27:15.847Z,71.40
2018-07-23T12:29:44.327Z,70.60
2018-07-23T12:32:12.899Z,69.70
2018-07-23T12:34:41.964Z,68.60
2018-07-23T12:37:10.515Z,66.60
2018-07-23T12:39:39.125Z,65.80
2018-07-23T12:42:07.575Z,60.80
2018-07-23T12:44:36.032Z,59.50
2018-07-23T12:47:04.574Z,63.90
2018-07-23T12:49:33.010Z,64.90
2018-07-23T12:52:02.191Z,64.40
2018-07-23T12:54:30.699Z,62.20
2018-07-23T12:56:59.279Z,64.70
2018-07-23T12:59:27.866Z,63.70
2018-07-23T13:01:56.446Z,62.50
2018-07-23T13:04:24.871Z,61.20
2018-07-23T13:06:53.998Z,61.00
2018-07-23T13:09:22.551Z,58.80
2018-07-23T13:11:51.016Z,57.30
2018-07-23T13:14:19.603Z,58.30
2018-07-23T13:16:48.149Z,57.60
2018-07-23T13:19:16.603Z,58.50
2018-07-23T13:21:45.007Z,59.50
2018-07-23T13:24:13.474Z,62.30
2018-07-23T13:26:42.085Z,61.90
2018-07-23T13:29:10.954Z,62.10
2018-07-23T13:31:39.479Z,63.90
2018-07-23T13:34:07.934Z,61.30
2018-07-23T13:36:37.071Z,61.10
2018-07-23T13:39:08.887Z,62.70
2018-07-23T13:41:37.492Z,60.10
2018-07-23T13:44:06.015Z,62.00
2018-07-23T13:46:34.601Z,63.70
2018-07-23T13:49:03.305Z,63.50
2018-07-23T13:51:31.748Z,63.40
2018-07-23T13:54:01.755Z,62.10
2018-07-23T13:56:30.264Z,60.30
2018-07-23T13:58:59.176Z,61.70
2018-07-23T14:01:27.704Z,63.30
2018-07-23T14:03:56.213Z,62.20
2018-07-23T14:06:24.868Z,61.70
2018-07-23T14:08:53.354Z,61.90
2018-07-23T14:11:21.851Z,61.10
2018-07-23T14:13:50.325Z,59.40
2018-07-23T14:16:18.795Z,58.70
2018-07-23T14:18:47.504Z,61.20
2018-07-23T14:21:16.032Z,60.00
2018-07-23T14:23:44.524Z,58.80
2018-07-23T14:26:12.991Z,59.70
2018-07-23T14:28:42.293Z,58.70
2018-07-23T14:31:10.930Z,54.40
2018-07-23T14:33:39.531Z,53.80
2018-07-23T14:36:08.250Z,52.10
2018-07-23T14:38:36.892Z,49.70
2018-07-23T14:41:05.399Z,47.30
2018-07-23T14:43:33.860Z,45.20
2018-07-23T14:46:02.564Z,42.50
2018-07-23T14:50:59.242Z,42.70
2018-07-23T14:53:27.848Z,39.00
2018-07-23T14:55:56.294Z,38.20
2018-07-23T14:58:24.726Z,37.00
2018-07-23T15:00:53.399Z,36.00
2018-07-23T15:03:22.056Z,34.70
2018-07-23T15:05:50.635Z,34.00
2018-07-23T15:08:19.225Z,35.70
2018-07-23T15:10:47.887Z,34.00
2018-07-23T15:13:16.522Z,32.80
2018-07-23T15:15:45.724Z,32.00
2018-07-23T15:18:14.562Z,31.20
2018-07-23T15:20:43.722Z,30.80
2018-07-23T15:23:12.451Z,33.10
2018-07-23T15:25:41.383Z,34.40
2018-07-23T15:28:09.931Z,32.90
2018-07-23T15:30:38.535Z,31.80
2018-07-23T15:33:07.261Z,31.80
2018-07-23T15:35:36.084Z,32.60
2018-07-23T15:38:04.887Z,32.70
2018-07-23T15:40:33.742Z,32.60
2018-07-23T15:43:02.414Z,32.60
2018-07-23T15:45:31.674Z,33.40
2018-07-23T15:48:00.342Z,32.50
2018-07-23T15:50:29.331Z,31.80
2018-07-23T15:52:58.018Z,32.00
2018-07-23T15:55:27.430Z,32.60
2018-07-23T15:57:56.083Z,30.00
2018-07-23T16:00:26.079Z,29.80
2018-07-23T16:02:54.658Z,34.10
2018-07-23T16:05:23.177Z,37.70
2018-07-23T16:07:51.663Z,38.60
2018-07-23T16:10:20.351Z,42.30
2018-07-23T16:12:48.978Z,43.00
2018-07-23T16:15:17.648Z,46.40
2018-07-23T16:17:46.312Z,47.50
2018-07-23T16:20:14.994Z,47.60
2018-07-23T16:22:43.690Z,50.40
2018-07-23T16:25:12.474Z,49.40
2018-07-23T16:27:40.951Z,51.00
2018-07-23T16:30:10.064Z,49.50
2018-07-23T16:32:38.603Z,48.70
2018-07-23T16:35:09.070Z,50.30
2018-07-23T16:37:37.757Z,52.40
2018-07-23T16:40:06.523Z,53.40
2018-07-23T16:42:35.321Z,56.30
2018-07-23T16:45:03.918Z,53.80
2018-07-23T16:47:33.379Z,55.40
2018-07-23T16:50:01.877Z,57.30
2018-07-23T16:52:30.553Z,54.60
2018-07-23T16:54:59.151Z,54.60
2018-07-23T16:57:27.663Z,55.80
2018-07-23T16:59:56.227Z,54.70
2018-07-23T17:02:24.881Z,53.40
2018-07-23T17:04:55.022Z,53.20
2018-07-23T17:07:23.539Z,53.50
2018-07-23T17:09:52.297Z,52.40
2018-07-23T17:12:20.806Z,51.40
2018-07-23T17:14:49.296Z,50.60
2018-07-23T17:17:17.850Z,50.40
2018-07-23T17:19:46.384Z,50.00
2018-07-23T17:22:14.886Z,49.60
2018-07-23T17:24:43.556Z,48.90
2018-07-23T17:27:12.243Z,44.80
2018-07-23T17:29:41.138Z,45.10
2018-07-23T17:32:09.651Z,44.00
2018-07-23T17:34:38.205Z,44.50
2018-07-23T17:37:06.741Z,44.50
2018-07-23T17:39:35.311Z,44.70
2018-07-23T17:42:03.901Z,45.90
2018-07-23T17:44:32.691Z,45.20
2018-07-23T17:47:01.146Z,44.50
2018-07-23T17:49:29.778Z,45.20
2018-07-23T17:51:58.227Z,46.60
2018-07-23T17:54:26.760Z,48.00
2018-07-23T17:56:55.422Z,49.20
2018-07-23T17:59:23.887Z,50.90
2018-07-23T18:01:53.780Z,54.30
2018-07-23T18:04:22.516Z,57.20
2018-07-23T18:06:51.059Z,60.60
2018-07-23T18:09:19.665Z,63.30
2018-07-23T18:11:48.196Z,64.00
2018-07-23T18:14:16.836Z,65.40
2018-07-23T18:16:45.748Z,66.60
2018-07-23T18:19:14.199Z,69.70
2018-07-23T18:21:44.402Z,71.60
2018-07-23T18:24:12.987Z,72.70
2018-07-23T18:26:41.664Z,75.40
2018-07-23T18:29:10.491Z,76.60
2018-07-23T18:31:39.118Z,79.20
2018-07-23T18:34:08.011Z,80.60
2018-07-23T18:36:36.529Z,81.70
2018-07-23T18:39:08.585Z,83.60
2018-07-23T18:41:37.503Z,85.60
2018-07-23T18:44:06.207Z,86.00
2018-07-23T18:46:34.796Z,86.20
2018-07-23T18:49:24.841Z,88.60
2018-07-23T18:51:54.252Z,89.40
2018-07-23T18:54:24.027Z,90.90
2018-07-23T18:56:54.165Z,91.40
2018-07-23T18:59:23.080Z,92.80
2018-07-23T19:04:20.981Z,94.80
2018-07-23T19:06:50.151Z,95.70
2018-07-23T19:09:19.875Z,96.10
2018-07-23T19:11:49.727Z,96.90
2018-07-23T19:14:18.762Z,97.90
2018-07-23T19:16:47.863Z,99.00
2018-07-23T19:19:16.438Z,99.90
2018-07-23T19:21:45.008Z,99.90
2018-07-23T19:24:13.571Z,99.90
2018-07-23T19:26:42.207Z,99.90
2018-07-23T19:29:10.813Z,99.90
2018-07-23T19:31:39.606Z,99.90
2018-07-23T19:34:09.583Z,99.90
2018-07-23T19:36:38.103Z,99.90
2018-07-23T19:39:09.089Z,99.90
2018-07-23T19:41:38.287Z,99.90
2018-07-23T19:44:07.496Z,99.90
2018-07-23T19:46:36.015Z,99.90
2018-07-23T19:49:04.738Z,99.90
2018-07-23T19:51:33.494Z,99.90
2018-07-23T19:54:02.111Z,99.90
2018-07-23T19:56:30.799Z,99.90
2018-07-23T19:58:59.286Z,99.90
2018-07-23T20:01:28.009Z,99.90
2018-07-23T20:03:56.528Z,99.90
2018-07-23T20:06:26.262Z,99.90
2018-07-23T20:08:56.045Z,99.90
2018-07-23T20:11:25.363Z,99.90
2018-07-23T20:13:54.151Z,99.90
2018-07-23T20:16:23.459Z,99.90
2018-07-23T20:18:51.999Z,99.90
2018-07-23T20:21:20.645Z,99.90
2018-07-23T20:23:49.294Z,99.90
2018-07-23T20:26:17.947Z,99.90
2018-07-23T20:28:46.403Z,99.90
2018-07-23T20:31:15.017Z,99.90
2018-07-23T20:33:44.989Z,99.90
2018-07-23T20:36:13.720Z,99.90
2018-07-23T20:38:42.235Z,99.90
2018-07-23T20:41:10.901Z,99.90
2018-07-23T20:43:39.606Z,99.90
2018-07-23T20:48:36.167Z,99.90
2018-07-23T20:51:04.647Z,99.90
2018-07-23T20:53:33.173Z,99.90
2018-07-23T20:56:01.599Z,99.90
2018-07-23T20:58:30.115Z,99.90
2018-07-23T21:00:59.022Z,99.90
2018-07-23T21:03:27.699Z,99.90
2018-07-23T21:05:56.266Z,99.90
2018-07-23T21:08:24.865Z,99.90
2018-07-23T21:10:53.358Z,99.90
2018-07-23T21:13:21.854Z,99.90
2018-07-23T21:15:50.631Z,99.90
2018-07-23T21:18:19.112Z,99.90
2018-07-23T21:20:47.536Z,99.90
2018-07-23T21:23:16.043Z,99.90
2018-07-23T21:25:44.619Z,99.90
2018-07-23T21:28:13.240Z,99.90
2018-07-23T21:30:41.727Z,99.90
2018-07-23T21:33:10.252Z,99.90
2018-07-23T21:35:38.779Z,99.90
2018-07-23T21:38:07.330Z,99.90
2018-07-23T21:40:35.834Z,99.90
2018-07-23T21:43:04.411Z,99.90
2018-07-23T21:45:33.047Z,99.90
2018-07-23T21:48:01.897Z,99.90
2018-07-23T21:50:30.513Z,99.90
2018-07-23T21:52:59.163Z,99.90
2018-07-23T21:55:27.705Z,99.90
2018-07-23T21:57:56.210Z,99.90
2018-07-23T22:00:24.807Z,99.90
2018-07-23T22:02:54.960Z,99.90
2018-07-23T22:05:23.447Z,99.90
2018-07-23T22:07:52.191Z,99.90
2018-07-23T22:10:20.625Z,99.90
2018-07-23T22:12:49.213Z,99.90
2018-07-23T22:15:17.680Z,99.90
2018-07-23T22:17:46.405Z,99.90
2018-07-23T22:20:14.990Z,99.90
2018-07-23T22:22:43.458Z,99.90
2018-07-23T22:25:13.351Z,99.90
2018-07-23T22:27:42.058Z,99.90
2018-07-23T22:30:10.579Z,99.90
2018-07-23T22:32:39.036Z,99.90
2018-07-23T22:35:08.525Z,99.90
2018-07-23T22:37:37.086Z,99.90
2018-07-23T22:40:05.668Z,99.90
2018-07-23T22:42:34.124Z,99.90
2018-07-23T22:45:02.736Z,99.90
2018-07-23T22:47:31.551Z,99.90
2018-07-23T22:50:00.083Z,99.90
2018-07-23T22:52:28.642Z,99.90
2018-07-23T22:54:58.238Z,99.90
2018-07-23T22:57:26.708Z,99.90
2018-07-23T22:59:55.177Z,99.90
2018-07-23T23:02:23.750Z,99.90
2018-07-23T23:04:52.316Z,99.90
2018-07-23T23:07:20.767Z,99.90
2018-07-23T23:09:49.658Z,99.90
2018-07-23T23:12:18.282Z,99.90
2018-07-23T23:14:46.752Z,99.90
2018-07-23T23:17:15.234Z,99.90
2018-07-23T23:19:43.707Z,99.90
2018-07-23T23:22:12.162Z,99.90
2018-07-23T23:24:40.720Z,99.90
2018-07-23T23:27:09.466Z,99.90
2018-07-23T23:29:37.937Z,99.90
2018-07-23T23:32:06.362Z,99.90
2018-07-23T23:34:35.279Z,99.90
2018-07-23T23:37:04.432Z,99.90
2018-07-23T23:39:33.098Z,99.90
2018-07-23T23:42:02.262Z,99.90
2018-07-23T23:44:30.841Z,99.90
2018-07-23T23:46:59.323Z,99.90
2018-07-23T23:49:28.008Z,99.90
2018-07-23T23:51:56.622Z,99.90
2018-07-23T23:54:25.252Z,99.90
2018-07-23T23:56:53.729Z,99.90
2018-07-23T23:59:22.242Z,99.90
